sensor_id;sensor_type;location;lat;lon;timestamp;P1;durP1;ratioP1;P2;durP2;ratioP2
37693;SDS011;23531;50.122;8.644;2022-09-20T00:01:08;9.02;;;2.55;;
37693;SDS011;23531;50.122;8.644;2022-09-20T00:03:11;5.20;;;1.80;;
37693;SDS011;23531;50.122;8.644;2022-09-20T00:05:14;5.53;;;1.88;;
37693;SDS011;23531;50.122;8.644;2022-09-20T00:07:16;5.85;;;1.70;;
37693;SDS011;23531;50.122;8.644;2022-09-20T00:09:17;5.75;;;1.90;;
37693;SDS011;23531;50.122;8.644;2022-09-20T00:11:21;6.32;;;2.30;;
37693;SDS011;23531;50.122;8.644;2022-09-20T00:13:23;6.72;;;2.33;;
37693;SDS011;23531;50.122;8.644;2022-09-20T00:15:25;6.38;;;2.53;;
37693;SDS011;23531;50.122;8.644;2022-09-20T00:17:26;2.53;;;1.98;;
37693;SDS011;23531;50.122;8.644;2022-09-20T00:19:28;7.80;;;2.50;;
37693;SDS011;23531;50.122;8.644;2022-09-20T00:21:30;6.95;;;2.85;;
37693;SDS011;23531;50.122;8.644;2022-09-20T00:23:33;9.77;;;2.55;;
37693;SDS011;23531;50.122;8.644;2022-09-20T00:25:35;11.13;;;2.50;;
37693;SDS011;23531;50.122;8.644;2022-09-20T00:27:38;7.80;;;2.60;;
37693;SDS011;23531;50.122;8.644;2022-09-20T00:29:39;4.25;;;2.33;;
37693;SDS011;23531;50.122;8.644;2022-09-20T00:31:41;6.20;;;2.15;;
37693;SDS011;23531;50.122;8.644;2022-09-20T00:33:42;3.58;;;1.80;;
37693;SDS011;23531;50.122;8.644;2022-09-20T00:36:01;6.63;;;2.33;;
37693;SDS011;23531;50.122;8.644;2022-09-20T00:38:02;4.88;;;2.42;;
37693;SDS011;23531;50.122;8.644;2022-09-20T00:40:05;6.38;;;2.03;;
37693;SDS011;23531;50.122;8.644;2022-09-20T00:42:09;8.43;;;2.08;;
37693;SDS011;23531;50.122;8.644;2022-09-20T00:46:52;2.95;;;1.98;;
37693;SDS011;23531;50.122;8.644;2022-09-20T00:48:55;4.78;;;1.85;;
37693;SDS011;23531;50.122;8.644;2022-09-20T00:51:04;5.07;;;2.10;;
37693;SDS011;23531;50.122;8.644;2022-09-20T00:53:11;5.68;;;2.20;;
37693;SDS011;23531;50.122;8.644;2022-09-20T00:55:14;8.82;;;2.28;;
37693;SDS011;23531;50.122;8.644;2022-09-20T00:57:16;5.70;;;2.53;;
37693;SDS011;23531;50.122;8.644;2022-09-20T00:59:19;5.82;;;2.38;;
37693;SDS011;23531;50.122;8.644;2022-09-20T01:01:22;6.57;;;2.13;;
37693;SDS011;23531;50.122;8.644;2022-09-20T01:03:25;5.53;;;2.08;;
37693;SDS011;23531;50.122;8.644;2022-09-20T01:05:30;6.18;;;2.30;;
37693;SDS011;23531;50.122;8.644;2022-09-20T01:07:32;5.72;;;1.85;;
37693;SDS011;23531;50.122;8.644;2022-09-20T01:09:34;7.10;;;2.30;;
37693;SDS011;23531;50.122;8.644;2022-09-20T01:11:35;7.47;;;2.80;;
37693;SDS011;23531;50.122;8.644;2022-09-20T01:13:37;6.88;;;2.70;;
37693;SDS011;23531;50.122;8.644;2022-09-20T01:15:39;7.50;;;2.45;;
37693;SDS011;23531;50.122;8.644;2022-09-20T01:17:43;7.30;;;2.60;;
37693;SDS011;23531;50.122;8.644;2022-09-20T01:19:50;4.88;;;2.33;;
37693;SDS011;23531;50.122;8.644;2022-09-20T01:22:05;11.85;;;2.58;;
37693;SDS011;23531;50.122;8.644;2022-09-20T01:24:15;9.20;;;2.75;;
37693;SDS011;23531;50.122;8.644;2022-09-20T01:26:36;9.15;;;2.80;;
37693;SDS011;23531;50.122;8.644;2022-09-20T01:28:59;5.28;;;2.58;;
37693;SDS011;23531;50.122;8.644;2022-09-20T01:31:09;14.25;;;3.33;;
37693;SDS011;23531;50.122;8.644;2022-09-20T01:33:16;8.40;;;2.83;;
37693;SDS011;23531;50.122;8.644;2022-09-20T01:35:29;8.05;;;3.03;;
37693;SDS011;23531;50.122;8.644;2022-09-20T01:37:35;11.60;;;3.42;;
37693;SDS011;23531;50.122;8.644;2022-09-20T01:39:49;9.32;;;3.10;;
37693;SDS011;23531;50.122;8.644;2022-09-20T01:41:58;8.18;;;2.97;;
37693;SDS011;23531;50.122;8.644;2022-09-20T01:44:05;10.07;;;3.00;;
37693;SDS011;23531;50.122;8.644;2022-09-20T01:46:19;5.30;;;2.80;;
37693;SDS011;23531;50.122;8.644;2022-09-20T01:48:33;8.57;;;2.85;;
37693;SDS011;23531;50.122;8.644;2022-09-20T01:50:45;9.45;;;3.10;;
37693;SDS011;23531;50.122;8.644;2022-09-20T01:53:11;10.93;;;3.55;;
37693;SDS011;23531;50.122;8.644;2022-09-20T01:55:53;10.00;;;2.60;;
37693;SDS011;23531;50.122;8.644;2022-09-20T01:58:16;11.80;;;3.00;;
37693;SDS011;23531;50.122;8.644;2022-09-20T02:03:02;9.52;;;2.72;;
37693;SDS011;23531;50.122;8.644;2022-09-20T02:05:40;7.40;;;3.10;;
37693;SDS011;23531;50.122;8.644;2022-09-20T02:10:12;7.63;;;2.80;;
37693;SDS011;23531;50.122;8.644;2022-09-20T02:12:41;6.97;;;3.45;;
37693;SDS011;23531;50.122;8.644;2022-09-20T02:14:54;9.07;;;3.13;;
37693;SDS011;23531;50.122;8.644;2022-09-20T02:17:08;9.27;;;2.60;;
37693;SDS011;23531;50.122;8.644;2022-09-20T02:19:20;9.35;;;2.70;;
37693;SDS011;23531;50.122;8.644;2022-09-20T02:21:34;10.43;;;3.00;;
37693;SDS011;23531;50.122;8.644;2022-09-20T02:23:43;8.75;;;2.88;;
37693;SDS011;23531;50.122;8.644;2022-09-20T02:25:54;9.00;;;3.40;;
37693;SDS011;23531;50.122;8.644;2022-09-20T02:28:14;9.30;;;3.30;;
37693;SDS011;23531;50.122;8.644;2022-09-20T02:30:26;11.10;;;3.25;;
37693;SDS011;23531;50.122;8.644;2022-09-20T02:32:46;11.13;;;3.10;;
37693;SDS011;23531;50.122;8.644;2022-09-20T02:35:12;10.63;;;3.03;;
37693;SDS011;23531;50.122;8.644;2022-09-20T02:37:25;14.43;;;2.97;;
37693;SDS011;23531;50.122;8.644;2022-09-20T02:39:42;8.48;;;3.40;;
37693;SDS011;23531;50.122;8.644;2022-09-20T02:41:56;11.07;;;3.22;;
37693;SDS011;23531;50.122;8.644;2022-09-20T02:44:06;9.73;;;3.00;;
37693;SDS011;23531;50.122;8.644;2022-09-20T02:46:16;10.15;;;3.03;;
37693;SDS011;23531;50.122;8.644;2022-09-20T02:48:26;8.32;;;2.67;;
37693;SDS011;23531;50.122;8.644;2022-09-20T02:50:37;8.85;;;2.63;;
37693;SDS011;23531;50.122;8.644;2022-09-20T02:52:48;9.23;;;2.45;;
37693;SDS011;23531;50.122;8.644;2022-09-20T02:54:59;13.82;;;3.38;;
37693;SDS011;23531;50.122;8.644;2022-09-20T02:57:09;12.90;;;2.63;;
37693;SDS011;23531;50.122;8.644;2022-09-20T02:59:22;10.93;;;3.15;;
37693;SDS011;23531;50.122;8.644;2022-09-20T03:01:31;8.45;;;3.15;;
37693;SDS011;23531;50.122;8.644;2022-09-20T03:03:44;10.75;;;3.30;;
37693;SDS011;23531;50.122;8.644;2022-09-20T03:05:57;11.15;;;3.78;;
37693;SDS011;23531;50.122;8.644;2022-09-20T03:08:10;10.00;;;3.13;;
37693;SDS011;23531;50.122;8.644;2022-09-20T03:10:21;12.35;;;3.25;;
37693;SDS011;23531;50.122;8.644;2022-09-20T03:12:28;9.50;;;3.67;;
37693;SDS011;23531;50.122;8.644;2022-09-20T03:14:39;8.50;;;3.65;;
37693;SDS011;23531;50.122;8.644;2022-09-20T03:17:00;12.60;;;3.77;;
37693;SDS011;23531;50.122;8.644;2022-09-20T03:19:15;9.63;;;3.90;;
37693;SDS011;23531;50.122;8.644;2022-09-20T03:21:35;10.50;;;3.95;;
37693;SDS011;23531;50.122;8.644;2022-09-20T03:23:48;14.27;;;3.80;;
37693;SDS011;23531;50.122;8.644;2022-09-20T03:26:01;10.38;;;3.40;;
37693;SDS011;23531;50.122;8.644;2022-09-20T03:28:20;13.98;;;3.88;;
37693;SDS011;23531;50.122;8.644;2022-09-20T03:30:35;11.02;;;4.60;;
37693;SDS011;23531;50.122;8.644;2022-09-20T03:32:48;9.38;;;3.45;;
37693;SDS011;23531;50.122;8.644;2022-09-20T03:35:05;12.65;;;3.80;;
37693;SDS011;23531;50.122;8.644;2022-09-20T03:37:25;9.35;;;4.50;;
37693;SDS011;23531;50.122;8.644;2022-09-20T03:39:53;14.23;;;4.80;;
37693;SDS011;23531;50.122;8.644;2022-09-20T03:42:12;8.63;;;3.70;;
37693;SDS011;23531;50.122;8.644;2022-09-20T03:44:23;11.95;;;3.50;;
37693;SDS011;23531;50.122;8.644;2022-09-20T03:46:37;9.23;;;3.55;;
37693;SDS011;23531;50.122;8.644;2022-09-20T03:49:08;9.45;;;3.80;;
37693;SDS011;23531;50.122;8.644;2022-09-20T03:51:30;8.48;;;3.72;;
37693;SDS011;23531;50.122;8.644;2022-09-20T03:53:57;11.13;;;3.70;;
37693;SDS011;23531;50.122;8.644;2022-09-20T03:56:25;13.77;;;3.60;;
37693;SDS011;23531;50.122;8.644;2022-09-20T03:58:49;14.20;;;3.80;;
37693;SDS011;23531;50.122;8.644;2022-09-20T04:01:08;11.90;;;4.10;;
37693;SDS011;23531;50.122;8.644;2022-09-20T04:03:27;7.47;;;3.45;;
37693;SDS011;23531;50.122;8.644;2022-09-20T04:05:39;13.15;;;4.00;;
37693;SDS011;23531;50.122;8.644;2022-09-20T04:07:51;11.85;;;3.88;;
37693;SDS011;23531;50.122;8.644;2022-09-20T04:10:10;10.13;;;4.25;;
37693;SDS011;23531;50.122;8.644;2022-09-20T04:12:28;14.60;;;4.03;;
37693;SDS011;23531;50.122;8.644;2022-09-20T04:14:40;9.60;;;4.07;;
37693;SDS011;23531;50.122;8.644;2022-09-20T04:16:50;10.18;;;4.43;;
37693;SDS011;23531;50.122;8.644;2022-09-20T04:19:02;8.65;;;3.80;;
37693;SDS011;23531;50.122;8.644;2022-09-20T04:21:11;11.10;;;3.90;;
37693;SDS011;23531;50.122;8.644;2022-09-20T04:23:20;9.50;;;4.07;;
37693;SDS011;23531;50.122;8.644;2022-09-20T04:25:33;13.80;;;3.97;;
37693;SDS011;23531;50.122;8.644;2022-09-20T04:27:39;9.85;;;4.30;;
37693;SDS011;23531;50.122;8.644;2022-09-20T04:29:46;14.00;;;4.22;;
37693;SDS011;23531;50.122;8.644;2022-09-20T04:31:54;15.23;;;4.13;;
37693;SDS011;23531;50.122;8.644;2022-09-20T04:34:03;9.00;;;4.28;;
37693;SDS011;23531;50.122;8.644;2022-09-20T04:36:13;14.00;;;6.53;;
37693;SDS011;23531;50.122;8.644;2022-09-20T04:38:32;13.85;;;6.60;;
37693;SDS011;23531;50.122;8.644;2022-09-20T04:40:36;11.40;;;5.25;;
37693;SDS011;23531;50.122;8.644;2022-09-20T04:43:11;13.63;;;4.13;;
37693;SDS011;23531;50.122;8.644;2022-09-20T04:45:36;11.48;;;4.75;;
37693;SDS011;23531;50.122;8.644;2022-09-20T04:47:56;16.58;;;5.20;;
37693;SDS011;23531;50.122;8.644;2022-09-20T04:53:06;11.30;;;5.32;;
37693;SDS011;23531;50.122;8.644;2022-09-20T04:55:32;12.68;;;5.68;;
37693;SDS011;23531;50.122;8.644;2022-09-20T04:58:10;11.15;;;5.90;;
37693;SDS011;23531;50.122;8.644;2022-09-20T05:00:36;17.52;;;6.10;;
37693;SDS011;23531;50.122;8.644;2022-09-20T05:02:54;11.25;;;6.18;;
37693;SDS011;23531;50.122;8.644;2022-09-20T05:10:33;11.30;;;6.55;;
37693;SDS011;23531;50.122;8.644;2022-09-20T05:12:53;12.18;;;6.70;;
37693;SDS011;23531;50.122;8.644;2022-09-20T05:15:10;10.73;;;5.95;;
37693;SDS011;23531;50.122;8.644;2022-09-20T05:17:32;18.17;;;6.95;;
37693;SDS011;23531;50.122;8.644;2022-09-20T05:19:39;15.82;;;7.10;;
37693;SDS011;23531;50.122;8.644;2022-09-20T05:24:41;17.70;;;7.93;;
37693;SDS011;23531;50.122;8.644;2022-09-20T05:27:14;14.63;;;7.40;;
37693;SDS011;23531;50.122;8.644;2022-09-20T05:29:30;25.00;;;14.40;;
37693;SDS011;23531;50.122;8.644;2022-09-20T05:31:36;24.10;;;11.15;;
37693;SDS011;23531;50.122;8.644;2022-09-20T05:33:46;17.13;;;8.83;;
37693;SDS011;23531;50.122;8.644;2022-09-20T05:35:56;20.27;;;11.10;;
37693;SDS011;23531;50.122;8.644;2022-09-20T05:38:06;23.02;;;10.75;;
37693;SDS011;23531;50.122;8.644;2022-09-20T05:40:16;13.98;;;6.00;;
37693;SDS011;23531;50.122;8.644;2022-09-20T05:42:31;20.63;;;6.95;;
37693;SDS011;23531;50.122;8.644;2022-09-20T05:44:43;16.25;;;7.45;;
37693;SDS011;23531;50.122;8.644;2022-09-20T05:46:56;16.17;;;6.70;;
37693;SDS011;23531;50.122;8.644;2022-09-20T05:49:08;15.15;;;6.90;;
37693;SDS011;23531;50.122;8.644;2022-09-20T05:51:20;22.08;;;7.68;;
37693;SDS011;23531;50.122;8.644;2022-09-20T05:53:49;17.80;;;7.40;;
37693;SDS011;23531;50.122;8.644;2022-09-20T05:56:01;21.30;;;7.55;;
37693;SDS011;23531;50.122;8.644;2022-09-20T05:58:16;19.75;;;7.30;;
37693;SDS011;23531;50.122;8.644;2022-09-20T06:00:28;17.55;;;8.43;;
37693;SDS011;23531;50.122;8.644;2022-09-20T06:02:37;15.32;;;7.65;;
37693;SDS011;23531;50.122;8.644;2022-09-20T06:04:46;16.35;;;7.78;;
37693;SDS011;23531;50.122;8.644;2022-09-20T06:06:59;18.90;;;8.25;;
37693;SDS011;23531;50.122;8.644;2022-09-20T06:09:11;16.30;;;8.73;;
37693;SDS011;23531;50.122;8.644;2022-09-20T06:11:37;19.10;;;8.50;;
37693;SDS011;23531;50.122;8.644;2022-09-20T06:13:51;18.73;;;7.93;;
37693;SDS011;23531;50.122;8.644;2022-09-20T06:16:03;14.40;;;7.47;;
37693;SDS011;23531;50.122;8.644;2022-09-20T06:18:09;20.70;;;8.60;;
37693;SDS011;23531;50.122;8.644;2022-09-20T06:20:23;18.23;;;7.70;;
37693;SDS011;23531;50.122;8.644;2022-09-20T06:22:30;17.13;;;7.93;;
37693;SDS011;23531;50.122;8.644;2022-09-20T06:24:45;18.63;;;8.65;;
37693;SDS011;23531;50.122;8.644;2022-09-20T06:26:49;18.02;;;8.30;;
37693;SDS011;23531;50.122;8.644;2022-09-20T06:28:57;18.83;;;8.68;;
37693;SDS011;23531;50.122;8.644;2022-09-20T06:31:01;14.60;;;8.80;;
37693;SDS011;23531;50.122;8.644;2022-09-20T06:33:12;21.67;;;9.45;;
37693;SDS011;23531;50.122;8.644;2022-09-20T06:35:16;16.17;;;9.15;;
37693;SDS011;23531;50.122;8.644;2022-09-20T06:37:20;19.25;;;9.75;;
37693;SDS011;23531;50.122;8.644;2022-09-20T06:39:53;18.05;;;9.25;;
37693;SDS011;23531;50.122;8.644;2022-09-20T06:42:20;21.98;;;9.52;;
37693;SDS011;23531;50.122;8.644;2022-09-20T06:44:22;23.85;;;10.20;;
37693;SDS011;23531;50.122;8.644;2022-09-20T06:46:25;15.27;;;9.30;;
37693;SDS011;23531;50.122;8.644;2022-09-20T06:48:27;14.48;;;8.55;;
37693;SDS011;23531;50.122;8.644;2022-09-20T06:50:31;17.48;;;8.82;;
37693;SDS011;23531;50.122;8.644;2022-09-20T06:52:35;16.95;;;8.43;;
37693;SDS011;23531;50.122;8.644;2022-09-20T06:54:36;18.13;;;8.63;;
37693;SDS011;23531;50.122;8.644;2022-09-20T06:56:39;14.95;;;8.77;;
37693;SDS011;23531;50.122;8.644;2022-09-20T06:58:41;18.50;;;9.23;;
37693;SDS011;23531;50.122;8.644;2022-09-20T07:00:43;16.50;;;8.27;;
37693;SDS011;23531;50.122;8.644;2022-09-20T07:02:45;15.25;;;7.65;;
37693;SDS011;23531;50.122;8.644;2022-09-20T07:04:47;14.43;;;7.32;;
37693;SDS011;23531;50.122;8.644;2022-09-20T07:06:51;18.05;;;8.95;;
37693;SDS011;23531;50.122;8.644;2022-09-20T07:08:53;11.95;;;7.32;;
37693;SDS011;23531;50.122;8.644;2022-09-20T07:10:54;12.10;;;7.45;;
37693;SDS011;23531;50.122;8.644;2022-09-20T07:12:56;17.05;;;8.15;;
37693;SDS011;23531;50.122;8.644;2022-09-20T07:14:59;14.52;;;7.65;;
37693;SDS011;23531;50.122;8.644;2022-09-20T07:17:02;16.42;;;8.65;;
37693;SDS011;23531;50.122;8.644;2022-09-20T07:19:03;16.50;;;7.97;;
37693;SDS011;23531;50.122;8.644;2022-09-20T07:21:05;20.60;;;8.40;;
37693;SDS011;23531;50.122;8.644;2022-09-20T07:23:07;14.88;;;8.30;;
37693;SDS011;23531;50.122;8.644;2022-09-20T07:25:09;12.90;;;7.68;;
37693;SDS011;23531;50.122;8.644;2022-09-20T07:27:10;15.18;;;7.93;;
37693;SDS011;23531;50.122;8.644;2022-09-20T07:29:12;18.02;;;8.25;;
37693;SDS011;23531;50.122;8.644;2022-09-20T07:31:14;13.48;;;7.97;;
37693;SDS011;23531;50.122;8.644;2022-09-20T07:33:17;17.25;;;9.05;;
37693;SDS011;23531;50.122;8.644;2022-09-20T07:35:20;14.63;;;7.80;;
37693;SDS011;23531;50.122;8.644;2022-09-20T07:37:22;17.27;;;8.20;;
37693;SDS011;23531;50.122;8.644;2022-09-20T07:39:23;14.80;;;7.53;;
37693;SDS011;23531;50.122;8.644;2022-09-20T07:41:25;15.63;;;9.25;;
37693;SDS011;23531;50.122;8.644;2022-09-20T07:43:29;15.65;;;7.15;;
37693;SDS011;23531;50.122;8.644;2022-09-20T07:45:31;13.55;;;7.90;;
37693;SDS011;23531;50.122;8.644;2022-09-20T07:47:34;12.38;;;7.18;;
37693;SDS011;23531;50.122;8.644;2022-09-20T07:49:37;12.82;;;8.13;;
37693;SDS011;23531;50.122;8.644;2022-09-20T07:51:39;15.75;;;7.68;;
37693;SDS011;23531;50.122;8.644;2022-09-20T07:53:40;12.38;;;7.90;;
37693;SDS011;23531;50.122;8.644;2022-09-20T07:55:42;13.40;;;7.53;;
37693;SDS011;23531;50.122;8.644;2022-09-20T07:57:43;14.07;;;8.25;;
37693;SDS011;23531;50.122;8.644;2022-09-20T07:59:45;12.25;;;7.35;;
37693;SDS011;23531;50.122;8.644;2022-09-20T08:01:46;13.32;;;7.35;;
37693;SDS011;23531;50.122;8.644;2022-09-20T08:03:49;16.85;;;8.45;;
37693;SDS011;23531;50.122;8.644;2022-09-20T08:05:57;11.43;;;6.43;;
37693;SDS011;23531;50.122;8.644;2022-09-20T08:07:59;15.40;;;7.32;;
37693;SDS011;23531;50.122;8.644;2022-09-20T08:10:01;14.40;;;7.05;;
37693;SDS011;23531;50.122;8.644;2022-09-20T08:12:03;15.02;;;7.63;;
37693;SDS011;23531;50.122;8.644;2022-09-20T08:14:06;11.50;;;7.10;;
37693;SDS011;23531;50.122;8.644;2022-09-20T08:16:08;17.27;;;7.22;;
37693;SDS011;23531;50.122;8.644;2022-09-20T08:18:12;11.00;;;6.47;;
37693;SDS011;23531;50.122;8.644;2022-09-20T08:20:16;12.05;;;6.32;;
37693;SDS011;23531;50.122;8.644;2022-09-20T08:22:19;13.63;;;7.05;;
37693;SDS011;23531;50.122;8.644;2022-09-20T08:24:22;8.57;;;5.82;;
37693;SDS011;23531;50.122;8.644;2022-09-20T08:26:25;18.70;;;5.93;;
37693;SDS011;23531;50.122;8.644;2022-09-20T08:28:30;8.15;;;5.68;;
37693;SDS011;23531;50.122;8.644;2022-09-20T08:30:32;10.65;;;6.32;;
37693;SDS011;23531;50.122;8.644;2022-09-20T08:32:34;13.55;;;5.68;;
37693;SDS011;23531;50.122;8.644;2022-09-20T08:34:38;17.63;;;6.95;;
37693;SDS011;23531;50.122;8.644;2022-09-20T08:36:40;14.25;;;5.65;;
37693;SDS011;23531;50.122;8.644;2022-09-20T08:38:46;16.65;;;6.05;;
37693;SDS011;23531;50.122;8.644;2022-09-20T08:40:48;10.88;;;5.70;;
37693;SDS011;23531;50.122;8.644;2022-09-20T08:42:49;12.00;;;6.05;;
37693;SDS011;23531;50.122;8.644;2022-09-20T08:44:54;9.68;;;5.90;;
37693;SDS011;23531;50.122;8.644;2022-09-20T08:47:02;16.50;;;6.68;;
37693;SDS011;23531;50.122;8.644;2022-09-20T08:49:09;11.82;;;5.60;;
37693;SDS011;23531;50.122;8.644;2022-09-20T08:51:16;9.95;;;4.97;;
37693;SDS011;23531;50.122;8.644;2022-09-20T08:53:18;11.73;;;5.00;;
37693;SDS011;23531;50.122;8.644;2022-09-20T08:55:22;8.18;;;4.75;;
37693;SDS011;23531;50.122;8.644;2022-09-20T08:57:27;11.88;;;5.25;;
37693;SDS011;23531;50.122;8.644;2022-09-20T08:59:32;12.80;;;4.47;;
37693;SDS011;23531;50.122;8.644;2022-09-20T09:01:34;7.85;;;4.38;;
37693;SDS011;23531;50.122;8.644;2022-09-20T09:03:36;10.57;;;4.25;;
37693;SDS011;23531;50.122;8.644;2022-09-20T09:05:39;11.75;;;5.07;;
37693;SDS011;23531;50.122;8.644;2022-09-20T09:07:44;7.07;;;3.72;;
37693;SDS011;23531;50.122;8.644;2022-09-20T09:09:47;13.40;;;4.55;;
37693;SDS011;23531;50.122;8.644;2022-09-20T09:11:53;8.60;;;3.78;;
37693;SDS011;23531;50.122;8.644;2022-09-20T09:13:56;12.60;;;3.58;;
37693;SDS011;23531;50.122;8.644;2022-09-20T09:16:04;11.65;;;3.88;;
37693;SDS011;23531;50.122;8.644;2022-09-20T09:18:10;7.32;;;3.55;;
37693;SDS011;23531;50.122;8.644;2022-09-20T09:20:14;9.65;;;3.72;;
37693;SDS011;23531;50.122;8.644;2022-09-20T09:22:18;13.75;;;3.95;;
37693;SDS011;23531;50.122;8.644;2022-09-20T09:24:22;9.45;;;2.72;;
37693;SDS011;23531;50.122;8.644;2022-09-20T09:26:25;9.15;;;3.33;;
37693;SDS011;23531;50.122;8.644;2022-09-20T09:28:29;6.32;;;2.33;;
37693;SDS011;23531;50.122;8.644;2022-09-20T09:30:36;4.07;;;2.70;;
37693;SDS011;23531;50.122;8.644;2022-09-20T09:32:39;8.63;;;2.38;;
37693;SDS011;23531;50.122;8.644;2022-09-20T09:34:40;7.80;;;2.42;;
37693;SDS011;23531;50.122;8.644;2022-09-20T09:36:42;9.73;;;2.65;;
37693;SDS011;23531;50.122;8.644;2022-09-20T09:38:44;3.42;;;2.05;;
37693;SDS011;23531;50.122;8.644;2022-09-20T09:40:50;6.05;;;1.85;;
37693;SDS011;23531;50.122;8.644;2022-09-20T09:42:53;9.95;;;2.95;;
37693;SDS011;23531;50.122;8.644;2022-09-20T09:45:02;8.25;;;2.30;;
37693;SDS011;23531;50.122;8.644;2022-09-20T09:47:19;7.53;;;2.58;;
37693;SDS011;23531;50.122;8.644;2022-09-20T09:49:24;6.32;;;2.13;;
37693;SDS011;23531;50.122;8.644;2022-09-20T09:51:26;6.00;;;2.40;;
37693;SDS011;23531;50.122;8.644;2022-09-20T09:53:28;6.40;;;1.80;;
37693;SDS011;23531;50.122;8.644;2022-09-20T09:55:34;4.63;;;1.65;;
37693;SDS011;23531;50.122;8.644;2022-09-20T09:57:57;5.53;;;1.80;;
37693;SDS011;23531;50.122;8.644;2022-09-20T10:00:10;6.72;;;1.70;;
37693;SDS011;23531;50.122;8.644;2022-09-20T10:02:19;7.05;;;1.90;;
37693;SDS011;23531;50.122;8.644;2022-09-20T10:04:31;8.10;;;1.95;;
37693;SDS011;23531;50.122;8.644;2022-09-20T10:06:37;5.32;;;2.22;;
37693;SDS011;23531;50.122;8.644;2022-09-20T10:08:48;5.88;;;1.75;;
37693;SDS011;23531;50.122;8.644;2022-09-20T10:11:02;5.82;;;1.98;;
37693;SDS011;23531;50.122;8.644;2022-09-20T10:13:13;7.30;;;2.13;;
37693;SDS011;23531;50.122;8.644;2022-09-20T10:15:26;7.00;;;2.20;;
37693;SDS011;23531;50.122;8.644;2022-09-20T10:17:34;3.90;;;1.80;;
37693;SDS011;23531;50.122;8.644;2022-09-20T10:19:51;7.70;;;2.53;;
37693;SDS011;23531;50.122;8.644;2022-09-20T10:22:04;10.70;;;1.90;;
37693;SDS011;23531;50.122;8.644;2022-09-20T10:24:12;6.10;;;1.88;;
37693;SDS011;23531;50.122;8.644;2022-09-20T10:26:36;5.68;;;2.40;;
37693;SDS011;23531;50.122;8.644;2022-09-20T10:28:52;8.07;;;2.78;;
37693;SDS011;23531;50.122;8.644;2022-09-20T10:31:05;7.47;;;2.30;;
37693;SDS011;23531;50.122;8.644;2022-09-20T10:33:15;6.93;;;2.28;;
37693;SDS011;23531;50.122;8.644;2022-09-20T10:35:24;4.55;;;1.50;;
37693;SDS011;23531;50.122;8.644;2022-09-20T10:37:31;4.90;;;1.80;;
37693;SDS011;23531;50.122;8.644;2022-09-20T10:39:40;6.22;;;1.63;;
37693;SDS011;23531;50.122;8.644;2022-09-20T10:41:45;7.75;;;1.85;;
37693;SDS011;23531;50.122;8.644;2022-09-20T10:44:19;4.35;;;1.42;;
37693;SDS011;23531;50.122;8.644;2022-09-20T10:46:40;5.35;;;1.50;;
37693;SDS011;23531;50.122;8.644;2022-09-20T10:48:51;3.85;;;1.55;;
37693;SDS011;23531;50.122;8.644;2022-09-20T10:53:09;4.70;;;1.63;;
37693;SDS011;23531;50.122;8.644;2022-09-20T10:55:31;2.70;;;1.30;;
37693;SDS011;23531;50.122;8.644;2022-09-20T10:57:46;4.05;;;1.40;;
37693;SDS011;23531;50.122;8.644;2022-09-20T10:59:56;5.60;;;1.60;;
37693;SDS011;23531;50.122;8.644;2022-09-20T11:02:15;3.80;;;1.30;;
37693;SDS011;23531;50.122;8.644;2022-09-20T11:04:48;5.15;;;1.50;;
37693;SDS011;23531;50.122;8.644;2022-09-20T11:07:03;5.57;;;1.30;;
37693;SDS011;23531;50.122;8.644;2022-09-20T11:09:13;5.85;;;1.27;;
37693;SDS011;23531;50.122;8.644;2022-09-20T11:11:18;3.72;;;1.40;;
37693;SDS011;23531;50.122;8.644;2022-09-20T11:13:24;4.40;;;1.60;;
37693;SDS011;23531;50.122;8.644;2022-09-20T11:15:31;3.55;;;1.25;;
37693;SDS011;23531;50.122;8.644;2022-09-20T11:17:42;4.88;;;1.20;;
37693;SDS011;23531;50.122;8.644;2022-09-20T11:19:51;4.53;;;1.50;;
37693;SDS011;23531;50.122;8.644;2022-09-20T11:22:00;5.38;;;1.65;;
37693;SDS011;23531;50.122;8.644;2022-09-20T11:24:10;2.05;;;1.48;;
37693;SDS011;23531;50.122;8.644;2022-09-20T11:26:21;5.45;;;1.05;;
37693;SDS011;23531;50.122;8.644;2022-09-20T11:28:28;3.28;;;1.35;;
37693;SDS011;23531;50.122;8.644;2022-09-20T11:30:34;4.82;;;1.42;;
37693;SDS011;23531;50.122;8.644;2022-09-20T11:32:45;5.93;;;1.30;;
37693;SDS011;23531;50.122;8.644;2022-09-20T11:34:50;6.78;;;3.30;;
37693;SDS011;23531;50.122;8.644;2022-09-20T11:36:55;3.97;;;1.52;;
37693;SDS011;23531;50.122;8.644;2022-09-20T11:39:01;3.88;;;1.67;;
37693;SDS011;23531;50.122;8.644;2022-09-20T11:41:07;2.80;;;1.33;;
37693;SDS011;23531;50.122;8.644;2022-09-20T11:43:14;3.25;;;1.30;;
37693;SDS011;23531;50.122;8.644;2022-09-20T11:45:18;6.60;;;1.25;;
37693;SDS011;23531;50.122;8.644;2022-09-20T11:47:22;3.17;;;1.30;;
37693;SDS011;23531;50.122;8.644;2022-09-20T11:49:29;4.82;;;1.45;;
37693;SDS011;23531;50.122;8.644;2022-09-20T11:54:23;3.35;;;1.40;;
37693;SDS011;23531;50.122;8.644;2022-09-20T11:56:37;5.25;;;1.30;;
37693;SDS011;23531;50.122;8.644;2022-09-20T11:58:42;2.85;;;1.20;;
37693;SDS011;23531;50.122;8.644;2022-09-20T12:00:48;4.40;;;1.38;;
37693;SDS011;23531;50.122;8.644;2022-09-20T12:02:53;8.18;;;1.88;;
37693;SDS011;23531;50.122;8.644;2022-09-20T12:04:56;5.22;;;1.35;;
37693;SDS011;23531;50.122;8.644;2022-09-20T12:06:59;5.07;;;1.27;;
37693;SDS011;23531;50.122;8.644;2022-09-20T12:09:05;2.03;;;1.65;;
37693;SDS011;23531;50.122;8.644;2022-09-20T12:11:25;4.03;;;1.33;;
37693;SDS011;23531;50.122;8.644;2022-09-20T12:13:29;4.22;;;1.17;;
37693;SDS011;23531;50.122;8.644;2022-09-20T12:15:34;5.75;;;1.30;;
37693;SDS011;23531;50.122;8.644;2022-09-20T12:25:58;5.80;;;1.08;;
37693;SDS011;23531;50.122;8.644;2022-09-20T12:28:00;4.40;;;1.10;;
37693;SDS011;23531;50.122;8.644;2022-09-20T12:30:06;4.60;;;1.58;;
37693;SDS011;23531;50.122;8.644;2022-09-20T12:32:33;6.47;;;1.20;;
37693;SDS011;23531;50.122;8.644;2022-09-20T12:34:45;4.43;;;1.35;;
37693;SDS011;23531;50.122;8.644;2022-09-20T12:39:15;5.45;;;1.40;;
37693;SDS011;23531;50.122;8.644;2022-09-20T12:41:18;3.20;;;1.58;;
37693;SDS011;23531;50.122;8.644;2022-09-20T12:43:21;3.00;;;1.80;;
37693;SDS011;23531;50.122;8.644;2022-09-20T12:45:23;3.15;;;1.60;;
37693;SDS011;23531;50.122;8.644;2022-09-20T12:47:25;3.78;;;1.55;;
37693;SDS011;23531;50.122;8.644;2022-09-20T12:49:33;2.45;;;1.92;;
37693;SDS011;23531;50.122;8.644;2022-09-20T12:51:58;6.85;;;1.95;;
37693;SDS011;23531;50.122;8.644;2022-09-20T12:54:18;5.70;;;2.15;;
37693;SDS011;23531;50.122;8.644;2022-09-20T12:56:20;5.20;;;2.00;;
37693;SDS011;23531;50.122;8.644;2022-09-20T12:58:29;4.45;;;2.45;;
37693;SDS011;23531;50.122;8.644;2022-09-20T13:00:36;3.78;;;2.20;;
37693;SDS011;23531;50.122;8.644;2022-09-20T13:02:42;2.63;;;1.92;;
37693;SDS011;23531;50.122;8.644;2022-09-20T13:04:57;3.38;;;2.00;;
37693;SDS011;23531;50.122;8.644;2022-09-20T13:09:39;3.50;;;2.10;;
37693;SDS011;23531;50.122;8.644;2022-09-20T13:11:42;3.75;;;2.10;;
37693;SDS011;23531;50.122;8.644;2022-09-20T13:13:48;4.18;;;1.92;;
37693;SDS011;23531;50.122;8.644;2022-09-20T13:15:51;3.65;;;1.90;;
37693;SDS011;23531;50.122;8.644;2022-09-20T13:17:55;6.32;;;2.47;;
37693;SDS011;23531;50.122;8.644;2022-09-20T13:20:00;3.90;;;2.15;;
37693;SDS011;23531;50.122;8.644;2022-09-20T13:22:04;4.80;;;1.77;;
37693;SDS011;23531;50.122;8.644;2022-09-20T13:24:09;3.47;;;1.70;;
37693;SDS011;23531;50.122;8.644;2022-09-20T13:26:24;6.05;;;2.30;;
37693;SDS011;23531;50.122;8.644;2022-09-20T13:28:31;3.65;;;1.60;;
37693;SDS011;23531;50.122;8.644;2022-09-20T13:32:40;2.92;;;1.58;;